Time;durP1;ratioP1;P1;durP2;ratioP2;P2;SDS_P1;SDS_P2;PMS_P1;PMS_P2;Temp;Humidity;BMP_temperature;BMP_pressure;BME280_temperature;BME280_humidity;BME280_pressure;Samples;Min_cycle;Max_cycle;Signal;HPM_P1;HPM_P2
2023/12/17 00:01:42;;;;;;;14.05;5.80;;;;;;;;;;6135745;23;20017;-83
2023/12/17 00:04:08;;;;;;;14.68;6.65;;;;;;;;;;6133808;23;20060;-83
2023/12/17 00:06:37;;;;;;;13.13;6.40;;;;;;;;;;6158536;23;20069;-83
2023/12/17 00:09:03;;;;;;;14.88;7.30;;;;;;;;;;6133713;23;20017;-83
2023/12/17 00:11:29;;;;;;;15.18;6.53;;;;;;;;;;6134591;23;20022;-83
2023/12/17 00:13:56;;;;;;;16.45;6.28;;;;;;;;;;6159106;23;20028;-83
2023/12/17 00:16:22;;;;;;;13.40;6.65;;;;;;;;;;6159035;23;20357;-83
2023/12/17 00:18:48;;;;;;;14.65;6.68;;;;;;;;;;6185690;23;20452;-83
2023/12/17 00:21:14;;;;;;;13.18;6.35;;;;;;;;;;6159711;23;20096;-82
2023/12/17 00:23:40;;;;;;;15.23;6.75;;;;;;;;;;6135628;23;20071;-83
2023/12/17 00:26:06;;;;;;;16.17;6.55;;;;;;;;;;6159049;23;20018;-83
2023/12/17 00:28:32;;;;;;;12.00;6.43;;;;;;;;;;6159396;23;20013;-83
2023/12/17 00:30:58;;;;;;;14.38;6.80;;;;;;;;;;6135329;23;20149;-83
2023/12/17 00:33:24;;;;;;;11.93;6.35;;;;;;;;;;6159153;23;20013;-83
2023/12/17 00:35:50;;;;;;;12.70;6.18;;;;;;;;;;6135456;23;20024;-83
2023/12/17 00:38:16;;;;;;;15.07;6.57;;;;;;;;;;6135549;23;20104;-83
2023/12/17 00:40:42;;;;;;;18.15;6.85;;;;;;;;;;6135517;23;20361;-83
2023/12/17 00:43:08;;;;;;;12.85;5.50;;;;;;;;;;6136137;23;20393;-83
2023/12/17 00:45:36;;;;;;;10.50;6.07;;;;;;;;;;6134125;23;20017;-83
2023/12/17 00:48:02;;;;;;;10.77;6.20;;;;;;;;;;6159737;23;20438;-83
2023/12/17 00:50:28;;;;;;;12.38;6.13;;;;;;;;;;6134377;23;20025;-83
2023/12/17 00:52:54;;;;;;;14.27;6.70;;;;;;;;;;6178435;23;20472;-83
2023/12/17 00:55:21;;;;;;;15.75;6.40;;;;;;;;;;6147619;23;20036;-83
2023/12/17 00:57:47;;;;;;;13.55;6.25;;;;;;;;;;6123692;23;20307;-83
2023/12/17 01:00:13;;;;;;;12.50;6.53;;;;;;;;;;6133524;23;20013;-83
2023/12/17 01:02:39;;;;;;;11.02;5.82;;;;;;;;;;6137617;23;20028;-83
2023/12/17 01:05:05;;;;;;;13.13;6.55;;;;;;;;;;6137814;23;20116;-83
2023/12/17 01:07:31;;;;;;;11.18;5.90;;;;;;;;;;6137087;23;20048;-83
2023/12/17 01:09:57;;;;;;;14.18;5.85;;;;;;;;;;6161943;23;20044;-83
2023/12/17 01:12:24;;;;;;;13.75;5.75;;;;;;;;;;6138063;23;20044;-83
2023/12/17 01:14:50;;;;;;;13.23;5.78;;;;;;;;;;6162323;23;20052;-83
2023/12/17 01:17:16;;;;;;;11.43;6.00;;;;;;;;;;6161870;23;20017;-83
2023/12/17 01:19:42;;;;;;;15.23;5.82;;;;;;;;;;6161762;23;20477;-83
2023/12/17 01:22:08;;;;;;;13.57;5.70;;;;;;;;;;6138224;23;20025;-83
2023/12/17 01:24:34;;;;;;;12.18;5.32;;;;;;;;;;6138423;23;20464;-83
2023/12/17 01:27:00;;;;;;;16.17;5.57;;;;;;;;;;6189395;23;20013;-83
2023/12/17 01:29:26;;;;;;;13.93;5.53;;;;;;;;;;6137058;23;20021;-83
2023/12/17 01:31:52;;;;;;;10.93;5.10;;;;;;;;;;6162697;23;20024;-83
2023/12/17 01:34:20;;;;;;;12.32;5.32;;;;;;;;;;6161865;23;20029;-83
2023/12/17 01:36:46;;;;;;;12.77;5.28;;;;;;;;;;6161941;23;20020;-83
2023/12/17 01:39:12;;;;;;;13.30;5.45;;;;;;;;;;6162312;23;20019;-83
2023/12/17 01:41:38;;;;;;;13.35;5.30;;;;;;;;;;6136565;23;20230;-83
2023/12/17 01:44:04;;;;;;;15.90;6.00;;;;;;;;;;6137133;23;20072;-83
2023/12/17 01:46:30;;;;;;;14.35;5.72;;;;;;;;;;6137725;23;20091;-83
2023/12/17 01:48:56;;;;;;;14.77;5.70;;;;;;;;;;6162739;23;20037;-83
2023/12/17 01:51:22;;;;;;;15.20;6.47;;;;;;;;;;6137216;23;20023;-83
2023/12/17 01:53:48;;;;;;;10.88;4.90;;;;;;;;;;6137306;23;20526;-83
2023/12/17 01:56:15;;;;;;;14.13;5.47;;;;;;;;;;6138130;23;20513;-83
2023/12/17 01:58:41;;;;;;;10.77;5.90;;;;;;;;;;6138010;23;20017;-83
2023/12/17 02:01:07;;;;;;;14.45;5.80;;;;;;;;;;6162102;23;20016;-82
2023/12/17 02:03:33;;;;;;;10.27;5.72;;;;;;;;;;6137303;23;20020;-83
2023/12/17 02:06:00;;;;;;;14.10;5.80;;;;;;;;;;6187302;23;20032;-83
2023/12/17 02:08:26;;;;;;;11.63;5.72;;;;;;;;;;6161086;23;20025;-83
2023/12/17 02:10:53;;;;;;;12.48;5.82;;;;;;;;;;6137154;23;20021;-83
2023/12/17 02:13:20;;;;;;;12.13;6.10;;;;;;;;;;6161091;23;20036;-83
2023/12/17 02:15:46;;;;;;;12.93;5.78;;;;;;;;;;6137495;23;20099;-83
2023/12/17 02:18:12;;;;;;;11.55;5.40;;;;;;;;;;6161996;23;20077;-83
2023/12/17 02:20:39;;;;;;;12.02;5.72;;;;;;;;;;6137350;23;20025;-83
2023/12/17 02:23:05;;;;;;;10.90;5.40;;;;;;;;;;6161564;23;20410;-83
2023/12/17 02:25:32;;;;;;;11.07;5.43;;;;;;;;;;6161301;23;20021;-83
2023/12/17 02:27:58;;;;;;;10.10;5.40;;;;;;;;;;6136980;23;20081;-83
2023/12/17 02:30:24;;;;;;;13.05;5.65;;;;;;;;;;6161462;23;20017;-83
2023/12/17 02:32:51;;;;;;;10.40;5.78;;;;;;;;;;6161374;23;20044;-83
2023/12/17 02:35:17;;;;;;;11.35;6.35;;;;;;;;;;6137428;23;20044;-83
2023/12/17 02:37:43;;;;;;;9.68;5.45;;;;;;;;;;6187662;23;20017;-83
2023/12/17 02:40:09;;;;;;;13.35;6.22;;;;;;;;;;6136723;23;20060;-83
2023/12/17 02:42:35;;;;;;;14.25;6.57;;;;;;;;;;6187147;23;20021;-83
2023/12/17 02:45:01;;;;;;;17.20;6.60;;;;;;;;;;6188531;23;20048;-83
2023/12/17 02:47:30;;;;;;;10.90;6.40;;;;;;;;;;6137041;23;20017;-83
2023/12/17 02:49:56;;;;;;;10.40;5.45;;;;;;;;;;6161882;23;20021;-82
2023/12/17 02:52:22;;;;;;;10.38;5.65;;;;;;;;;;6137001;23;20040;-82
2023/12/17 02:54:48;;;;;;;13.38;5.60;;;;;;;;;;6136534;23;20017;-83
2023/12/17 02:57:14;;;;;;;12.20;6.05;;;;;;;;;;6136634;23;20021;-82
2023/12/17 02:59:41;;;;;;;11.90;6.22;;;;;;;;;;6136156;23;20449;-82
2023/12/17 03:02:09;;;;;;;10.93;5.47;;;;;;;;;;6188038;23;20021;-82
2023/12/17 03:04:35;;;;;;;13.27;5.70;;;;;;;;;;6136179;23;20052;-83
2023/12/17 03:07:01;;;;;;;11.15;6.18;;;;;;;;;;6135925;23;20028;-82
2023/12/17 03:09:27;;;;;;;13.90;6.68;;;;;;;;;;6136168;23;20032;-83
2023/12/17 03:11:53;;;;;;;9.93;5.47;;;;;;;;;;6161504;23;20021;-82
2023/12/17 03:14:20;;;;;;;12.27;5.80;;;;;;;;;;6136811;23;20017;-82
2023/12/17 03:16:46;;;;;;;11.55;5.97;;;;;;;;;;6161762;23;20024;-83
2023/12/17 03:19:12;;;;;;;12.25;6.28;;;;;;;;;;6136882;23;20152;-83
2023/12/17 03:21:38;;;;;;;9.10;5.80;;;;;;;;;;6188114;23;20017;-83
2023/12/17 03:24:05;;;;;;;10.50;5.90;;;;;;;;;;6136095;23;20049;-83
2023/12/17 03:26:32;;;;;;;13.73;5.90;;;;;;;;;;6137524;23;20045;-83
2023/12/17 03:28:58;;;;;;;12.07;6.30;;;;;;;;;;6161613;23;20557;-83
2023/12/17 03:31:24;;;;;;;10.85;6.18;;;;;;;;;;6161700;23;20062;-82
2023/12/17 03:33:50;;;;;;;10.63;6.03;;;;;;;;;;6135857;23;20021;-83
2023/12/17 03:36:16;;;;;;;9.23;5.80;;;;;;;;;;6136381;23;20017;-83
2023/12/17 03:38:43;;;;;;;12.48;6.07;;;;;;;;;;6160962;23;20100;-82
2023/12/17 03:41:22;;;;;;;11.45;5.75;;;;;;;;;;6136650;23;20028;-83
2023/12/17 03:43:52;;;;;;;10.65;5.93;;;;;;;;;;6136725;23;20072;-82
2023/12/17 03:46:21;;;;;;;9.20;5.68;;;;;;;;;;6161150;23;20017;-83
2023/12/17 03:48:47;;;;;;;12.55;6.30;;;;;;;;;;6136294;23;20052;-83
2023/12/17 03:51:13;;;;;;;11.80;5.88;;;;;;;;;;6134123;23;20021;-83
2023/12/17 03:53:39;;;;;;;8.70;5.70;;;;;;;;;;6161071;23;20059;-83
2023/12/17 03:56:09;;;;;;;12.25;5.90;;;;;;;;;;6161667;23;20052;-83
2023/12/17 03:58:38;;;;;;;10.55;5.60;;;;;;;;;;6136598;23;20394;-83
2023/12/17 04:01:05;;;;;;;10.50;5.28;;;;;;;;;;6160965;23;20449;-83
2023/12/17 04:03:31;;;;;;;12.20;6.03;;;;;;;;;;6137320;23;20017;-83
2023/12/17 04:05:59;;;;;;;9.98;5.43;;;;;;;;;;6160829;23;20073;-83
2023/12/17 04:08:25;;;;;;;12.20;5.60;;;;;;;;;;6136298;23;20079;-83
2023/12/17 04:10:51;;;;;;;8.70;5.80;;;;;;;;;;6136940;23;20445;-83
2023/12/17 04:13:18;;;;;;;11.15;5.82;;;;;;;;;;6187725;23;20017;-83
2023/12/17 04:15:44;;;;;;;10.27;5.55;;;;;;;;;;6160218;23;20017;-83
2023/12/17 04:18:10;;;;;;;14.30;5.90;;;;;;;;;;6136630;23;20393;-83
2023/12/17 04:20:36;;;;;;;10.20;5.97;;;;;;;;;;6160317;23;20028;-83
2023/12/17 04:23:02;;;;;;;12.70;6.35;;;;;;;;;;6136883;23;20017;-83
2023/12/17 04:25:28;;;;;;;12.40;5.93;;;;;;;;;;6136417;23;20075;-83
2023/12/17 04:27:54;;;;;;;12.30;5.82;;;;;;;;;;6136567;23;20013;-83
2023/12/17 04:30:20;;;;;;;11.95;6.65;;;;;;;;;;6135909;23;20079;-82
2023/12/17 04:32:46;;;;;;;12.00;6.15;;;;;;;;;;6160616;23;20075;-83
2023/12/17 04:35:12;;;;;;;10.05;6.22;;;;;;;;;;6138459;23;20430;-83
2023/12/17 04:37:38;;;;;;;9.20;6.40;;;;;;;;;;6162645;23;20017;-83
2023/12/17 04:40:04;;;;;;;11.57;6.40;;;;;;;;;;6138270;23;20469;-83
2023/12/17 04:42:30;;;;;;;9.80;6.57;;;;;;;;;;6138469;23;20088;-83
2023/12/17 04:44:57;;;;;;;14.10;6.80;;;;;;;;;;6163368;23;20323;-83
2023/12/17 04:47:23;;;;;;;11.50;6.78;;;;;;;;;;6162721;23;20039;-83
2023/12/17 04:49:49;;;;;;;10.88;5.88;;;;;;;;;;6162069;23;20542;-83
2023/12/17 04:52:15;;;;;;;15.55;6.57;;;;;;;;;;6138268;23;20013;-83
2023/12/17 04:54:41;;;;;;;13.13;6.78;;;;;;;;;;6138363;23;20073;-83
2023/12/17 04:57:07;;;;;;;10.32;6.30;;;;;;;;;;6138355;23;20047;-82
2023/12/17 04:59:33;;;;;;;12.43;6.65;;;;;;;;;;6188072;23;20048;-83
2023/12/17 05:01:59;;;;;;;11.07;6.30;;;;;;;;;;6162217;23;20362;-83
2023/12/17 05:04:25;;;;;;;13.02;6.75;;;;;;;;;;6159915;23;20092;-83
2023/12/17 05:06:51;;;;;;;12.63;7.13;;;;;;;;;;6159032;23;20088;-83
2023/12/17 05:09:17;;;;;;;12.82;6.60;;;;;;;;;;6135399;23;20049;-82
2023/12/17 05:11:44;;;;;;;13.98;6.50;;;;;;;;;;6159820;23;20354;-83
2023/12/17 05:14:10;;;;;;;12.48;6.80;;;;;;;;;;6135732;23;20028;-83
2023/12/17 05:16:36;;;;;;;8.18;6.25;;;;;;;;;;6134174;23;20025;-82
2023/12/17 05:19:02;;;;;;;11.98;6.53;;;;;;;;;;6160124;23;20013;-82
2023/12/17 05:21:28;;;;;;;10.88;6.57;;;;;;;;;;6160289;23;20093;-82
2023/12/17 05:23:54;;;;;;;12.50;7.03;;;;;;;;;;6161361;23;20017;-82
2023/12/17 05:26:20;;;;;;;12.95;7.20;;;;;;;;;;6135132;23;20017;-82
2023/12/17 05:28:46;;;;;;;11.00;7.18;;;;;;;;;;6134863;23;20048;-83
2023/12/17 05:31:12;;;;;;;12.23;7.20;;;;;;;;;;6134209;23;20068;-83
2023/12/17 05:33:38;;;;;;;10.85;7.22;;;;;;;;;;6134710;23;20017;-83
2023/12/17 05:36:05;;;;;;;9.75;6.75;;;;;;;;;;6134987;23;20017;-82
2023/12/17 05:38:31;;;;;;;13.25;7.35;;;;;;;;;;6134806;23;20406;-82
2023/12/17 05:40:57;;;;;;;12.50;7.68;;;;;;;;;;6135202;23;20342;-82
2023/12/17 05:43:24;;;;;;;12.85;7.70;;;;;;;;;;6159925;23;20052;-82
2023/12/17 05:45:50;;;;;;;13.93;7.80;;;;;;;;;;6159086;23;20604;-82
2023/12/17 05:48:16;;;;;;;18.23;8.98;;;;;;;;;;6186584;23;20020;-82
2023/12/17 05:50:43;;;;;;;17.10;9.30;;;;;;;;;;6134411;23;20021;-82
2023/12/17 05:53:09;;;;;;;13.75;8.27;;;;;;;;;;6134840;23;20464;-82
2023/12/17 05:55:35;;;;;;;14.10;9.20;;;;;;;;;;6186320;23;20020;-82
2023/12/17 05:58:01;;;;;;;18.15;10.35;;;;;;;;;;6187204;23;20092;-82
2023/12/17 06:00:27;;;;;;;17.15;9.13;;;;;;;;;;6160134;23;20034;-82
2023/12/17 06:02:53;;;;;;;14.85;9.40;;;;;;;;;;6135844;23;20017;-82
2023/12/17 06:05:19;;;;;;;18.33;9.82;;;;;;;;;;6135721;23;20017;-82
2023/12/17 06:07:45;;;;;;;17.52;9.95;;;;;;;;;;6135011;23;20025;-83
2023/12/17 06:10:11;;;;;;;15.13;9.60;;;;;;;;;;6136012;23;20056;-82
2023/12/17 06:12:37;;;;;;;17.15;10.60;;;;;;;;;;6135748;23;20017;-82
2023/12/17 06:15:04;;;;;;;20.15;10.73;;;;;;;;;;6186086;23;20017;-82
2023/12/17 06:17:33;;;;;;;20.70;10.23;;;;;;;;;;6136197;23;20013;-83
2023/12/17 06:19:59;;;;;;;18.73;11.35;;;;;;;;;;6160244;23;20028;-82
2023/12/17 06:22:28;;;;;;;21.45;11.68;;;;;;;;;;6160450;23;20021;-82
2023/12/17 06:24:54;;;;;;;18.98;10.90;;;;;;;;;;6160484;23;20017;-82
2023/12/17 06:27:20;;;;;;;22.90;10.90;;;;;;;;;;6136308;23;20021;-83
2023/12/17 06:29:48;;;;;;;19.73;11.43;;;;;;;;;;6136225;23;20021;-83
2023/12/17 06:32:15;;;;;;;25.65;11.07;;;;;;;;;;6136843;23;20031;-83
2023/12/17 06:34:42;;;;;;;20.92;11.30;;;;;;;;;;6160081;23;20021;-83
2023/12/17 06:37:11;;;;;;;21.73;10.80;;;;;;;;;;6135494;23;20028;-82
2023/12/17 06:39:40;;;;;;;22.90;11.50;;;;;;;;;;6135836;23;20017;-82
2023/12/17 06:42:06;;;;;;;20.92;11.05;;;;;;;;;;6159461;23;20025;-83
2023/12/17 06:44:32;;;;;;;19.92;11.48;;;;;;;;;;6136498;23;20052;-83
2023/12/17 06:46:58;;;;;;;22.95;11.45;;;;;;;;;;6134298;23;20013;-83
2023/12/17 06:49:24;;;;;;;21.02;11.00;;;;;;;;;;6136290;23;20017;-83
2023/12/17 06:51:50;;;;;;;24.42;10.95;;;;;;;;;;6135631;23;20021;-83
2023/12/17 06:54:16;;;;;;;21.17;10.82;;;;;;;;;;6161640;23;20044;-82
2023/12/17 06:56:44;;;;;;;20.65;10.90;;;;;;;;;;6161348;23;20024;-82
2023/12/17 06:59:10;;;;;;;19.75;11.95;;;;;;;;;;6136886;23;20024;-83
2023/12/17 07:01:36;;;;;;;27.35;13.10;;;;;;;;;;6136366;23;20017;-83
2023/12/17 07:04:02;;;;;;;20.52;10.63;;;;;;;;;;6161067;23;20017;-82
2023/12/17 07:06:30;;;;;;;25.25;11.88;;;;;;;;;;6187190;23;20442;-82
2023/12/17 07:08:56;;;;;;;16.50;10.00;;;;;;;;;;6159962;23;20024;-82
2023/12/17 07:11:22;;;;;;;20.73;10.43;;;;;;;;;;6160262;23;20076;-82
2023/12/17 07:13:49;;;;;;;23.13;11.57;;;;;;;;;;6135288;23;20346;-84
2023/12/17 07:16:24;;;;;;;22.95;11.07;;;;;;;;;;6185894;23;20021;-82
2023/12/17 07:18:51;;;;;;;24.30;10.57;;;;;;;;;;6160378;23;20024;-83
2023/12/17 07:21:17;;;;;;;22.73;9.88;;;;;;;;;;6186272;23;20021;-83
2023/12/17 07:23:43;;;;;;;21.98;10.73;;;;;;;;;;6135371;23;20465;-83
2023/12/17 07:26:09;;;;;;;21.02;10.05;;;;;;;;;;6135355;23;20017;-83
2023/12/17 07:28:35;;;;;;;22.65;9.60;;;;;;;;;;6135932;23;20024;-83
2023/12/17 07:31:02;;;;;;;18.90;9.40;;;;;;;;;;6135425;23;20492;-82
2023/12/17 07:33:28;;;;;;;20.77;10.05;;;;;;;;;;6136034;23;20013;-82
2023/12/17 07:35:54;;;;;;;20.10;10.52;;;;;;;;;;6136442;23;20397;-82
2023/12/17 07:38:20;;;;;;;18.65;9.48;;;;;;;;;;6136123;23;20021;-83
2023/12/17 07:40:46;;;;;;;23.17;10.75;;;;;;;;;;6162380;23;20059;-83
2023/12/17 07:43:12;;;;;;;22.13;9.85;;;;;;;;;;6137627;23;20020;-83
2023/12/17 07:45:38;;;;;;;22.40;9.77;;;;;;;;;;6161299;23;20025;-82
2023/12/17 07:48:04;;;;;;;21.42;9.88;;;;;;;;;;6160615;23;20020;-82
2023/12/17 07:50:31;;;;;;;21.45;9.23;;;;;;;;;;6135957;23;20100;-83
2023/12/17 07:52:57;;;;;;;21.88;9.40;;;;;;;;;;6136470;23;20162;-83
2023/12/17 07:55:23;;;;;;;23.25;9.68;;;;;;;;;;6187921;23;20021;-83
2023/12/17 07:57:49;;;;;;;14.70;8.23;;;;;;;;;;6136041;23;20064;-82
2023/12/17 08:00:15;;;;;;;19.30;9.35;;;;;;;;;;6135908;23;20341;-82
2023/12/17 08:02:41;;;;;;;17.23;8.73;;;;;;;;;;6187324;23;20108;-82
2023/12/17 08:05:08;;;;;;;22.38;8.90;;;;;;;;;;6136734;23;20021;-83
2023/12/17 08:07:34;;;;;;;20.05;9.85;;;;;;;;;;6187995;23;20055;-82
2023/12/17 08:10:00;;;;;;;17.08;10.23;;;;;;;;;;6138295;23;20051;-82
2023/12/17 08:12:26;;;;;;;22.25;11.25;;;;;;;;;;6138717;23;20052;-83
2023/12/17 08:14:52;;;;;;;22.75;11.82;;;;;;;;;;6139127;23;20017;-83
2023/12/17 08:17:18;;;;;;;19.63;10.80;;;;;;;;;;6163238;23;20032;-81
2023/12/17 08:19:44;;;;;;;22.85;11.73;;;;;;;;;;6162462;23;20048;-82
2023/12/17 08:22:10;;;;;;;26.40;13.45;;;;;;;;;;6138468;23;20541;-82
2023/12/17 08:24:36;;;;;;;28.95;13.82;;;;;;;;;;6138943;23;20021;-82
2023/12/17 08:27:02;;;;;;;27.95;15.07;;;;;;;;;;6163381;23;20464;-82
2023/12/17 08:29:29;;;;;;;25.13;15.23;;;;;;;;;;6189263;23;20013;-82
2023/12/17 08:31:58;;;;;;;29.30;16.00;;;;;;;;;;6162387;23;20100;-82
2023/12/17 08:34:25;;;;;;;27.50;16.42;;;;;;;;;;6138473;23;20063;-82
2023/12/17 08:36:51;;;;;;;33.58;18.52;;;;;;;;;;6137447;23;20480;-82
2023/12/17 08:39:17;;;;;;;32.75;19.27;;;;;;;;;;6137129;23;20060;-82
2023/12/17 08:41:43;;;;;;;34.85;19.40;;;;;;;;;;6137724;23;20524;-83
2023/12/17 08:44:10;;;;;;;35.50;20.33;;;;;;;;;;6137512;23;20049;-85
2023/12/17 08:46:36;;;;;;;32.80;19.58;;;;;;;;;;6136285;23;20020;-83
2023/12/17 08:49:06;;;;;;;30.67;18.00;;;;;;;;;;6136401;23;20032;-83
2023/12/17 08:51:32;;;;;;;30.13;18.50;;;;;;;;;;6137684;23;20017;-83
2023/12/17 08:53:58;;;;;;;32.80;19.77;;;;;;;;;;6137908;23;20299;-83
2023/12/17 08:56:24;;;;;;;34.05;18.13;;;;;;;;;;6137757;23;20521;-83
2023/12/17 08:58:50;;;;;;;26.85;15.48;;;;;;;;;;6138398;23;20308;-84
2023/12/17 09:01:19;;;;;;;25.80;13.30;;;;;;;;;;6136989;23;20099;-83
2023/12/17 09:03:50;;;;;;;23.80;12.95;;;;;;;;;;6138067;23;20017;-83
2023/12/17 09:06:17;;;;;;;21.45;12.38;;;;;;;;;;6138696;23;20013;-83
2023/12/17 09:08:45;;;;;;;21.55;11.77;;;;;;;;;;6138801;23;20025;-83
2023/12/17 09:11:11;;;;;;;26.92;11.95;;;;;;;;;;6138744;23;20017;-83
2023/12/17 09:13:38;;;;;;;22.92;10.93;;;;;;;;;;6139196;23;20013;-83
2023/12/17 09:16:07;;;;;;;22.30;10.68;;;;;;;;;;6138694;23;20056;-83
2023/12/17 09:18:33;;;;;;;23.95;11.55;;;;;;;;;;6138662;23;20109;-83
2023/12/17 09:20:59;;;;;;;21.38;11.90;;;;;;;;;;6138479;23;20013;-83
2023/12/17 09:23:26;;;;;;;24.88;10.75;;;;;;;;;;6162790;23;20434;-83
2023/12/17 09:25:52;;;;;;;17.27;9.80;;;;;;;;;;6138862;23;20513;-83
2023/12/17 09:28:18;;;;;;;22.15;10.02;;;;;;;;;;6162432;23;20052;-84
2023/12/17 09:30:45;;;;;;;21.33;10.30;;;;;;;;;;6138308;23;20071;-83
2023/12/17 09:33:12;;;;;;;22.17;10.07;;;;;;;;;;6138604;23;20021;-82
2023/12/17 09:35:39;;;;;;;23.92;9.68;;;;;;;;;;6138308;23;20511;-83
2023/12/17 09:38:05;;;;;;;21.98;10.40;;;;;;;;;;6138534;23;20017;-83
2023/12/17 09:40:32;;;;;;;21.13;10.00;;;;;;;;;;6138484;23;20024;-83
2023/12/17 09:42:59;;;;;;;20.85;10.02;;;;;;;;;;6137284;23;20490;-85
2023/12/17 09:45:26;;;;;;;23.17;10.27;;;;;;;;;;6138403;23;20075;-84
2023/12/17 09:47:52;;;;;;;24.73;9.75;;;;;;;;;;6137309;23;20013;-85
2023/12/17 09:50:18;;;;;;;24.77;10.88;;;;;;;;;;6137718;23;20394;-82
2023/12/17 09:52:44;;;;;;;24.25;10.18;;;;;;;;;;6138310;23;20021;-83
2023/12/17 09:55:11;;;;;;;21.17;10.25;;;;;;;;;;6137607;23;20020;-86
2023/12/17 09:57:37;;;;;;;20.40;9.80;;;;;;;;;;6136818;23;20017;-85
2023/12/17 10:00:04;;;;;;;25.85;10.13;;;;;;;;;;6160666;23;20438;-83
2023/12/17 10:02:30;;;;;;;27.27;11.15;;;;;;;;;;6137878;23;20048;-83
2023/12/17 10:04:57;;;;;;;27.88;12.65;;;;;;;;;;6162329;23;20358;-84
2023/12/17 10:07:23;;;;;;;25.20;10.70;;;;;;;;;;6162117;23;20024;-84
2023/12/17 10:09:55;;;;;;;25.35;11.27;;;;;;;;;;6136781;23;20141;-86
2023/12/17 10:12:21;;;;;;;26.92;11.35;;;;;;;;;;6136947;23;20079;-83
2023/12/17 10:14:47;;;;;;;22.30;11.02;;;;;;;;;;6135925;23;20020;-82
2023/12/17 10:17:17;;;;;;;21.02;11.73;;;;;;;;;;6135618;23;20021;-83
2023/12/17 10:19:43;;;;;;;24.33;12.05;;;;;;;;;;6135590;23;20021;-82
2023/12/17 10:22:09;;;;;;;21.33;11.27;;;;;;;;;;6135201;23;20036;-82
2023/12/17 10:24:41;;;;;;;25.25;11.63;;;;;;;;;;6135188;23;20056;-83
2023/12/17 10:27:16;;;;;;;25.30;10.32;;;;;;;;;;6135749;23;20024;-84
2023/12/17 10:29:43;;;;;;;32.38;11.27;;;;;;;;;;6136243;23;20016;-82
2023/12/17 10:32:11;;;;;;;25.75;10.68;;;;;;;;;;6160162;23;20023;-82
2023/12/17 10:34:41;;;;;;;25.55;9.52;;;;;;;;;;6160989;23;20350;-83
2023/12/17 10:37:07;;;;;;;25.50;10.55;;;;;;;;;;6135145;23;20462;-83
2023/12/17 10:39:34;;;;;;;28.20;11.13;;;;;;;;;;6134487;23;20028;-82
2023/12/17 10:42:01;;;;;;;24.58;11.68;;;;;;;;;;6159375;23;20020;-82
2023/12/17 10:44:27;;;;;;;26.55;10.98;;;;;;;;;;6135248;23;20021;-82
2023/12/17 10:46:58;;;;;;;23.05;10.70;;;;;;;;;;6135134;23;20017;-83
2023/12/17 10:49:24;;;;;;;23.70;11.23;;;;;;;;;;6160420;23;20355;-83
2023/12/17 10:51:51;;;;;;;26.80;11.68;;;;;;;;;;6150169;23;20016;-83
2023/12/17 10:54:21;;;;;;;25.77;10.55;;;;;;;;;;6152528;23;20021;-83
2023/12/17 10:56:50;;;;;;;24.08;12.00;;;;;;;;;;6148351;23;20087;-83
2023/12/17 10:59:19;;;;;;;27.08;12.77;;;;;;;;;;6165005;23;20021;-82
2023/12/17 11:01:46;;;;;;;25.83;12.52;;;;;;;;;;6164141;23;20027;-83
2023/12/17 11:04:13;;;;;;;25.60;12.48;;;;;;;;;;6139939;23;20013;-83
2023/12/17 11:06:39;;;;;;;29.05;11.90;;;;;;;;;;6138902;23;20017;-83
2023/12/17 11:09:05;;;;;;;23.00;11.05;;;;;;;;;;6140898;23;20328;-83
2023/12/17 11:11:32;;;;;;;20.08;11.05;;;;;;;;;;6139679;23;20032;-82
2023/12/17 11:14:02;;;;;;;23.58;10.80;;;;;;;;;;6140351;23;20020;-82
2023/12/17 11:16:29;;;;;;;21.75;10.65;;;;;;;;;;6164588;23;20028;-83
2023/12/17 11:18:59;;;;;;;25.88;10.77;;;;;;;;;;6139387;23;20040;-83
2023/12/17 11:21:27;;;;;;;24.30;10.65;;;;;;;;;;6140190;23;20017;-83
2023/12/17 11:23:53;;;;;;;26.05;10.35;;;;;;;;;;6139411;23;20048;-82
2023/12/17 11:26:29;;;;;;;25.50;11.25;;;;;;;;;;6138769;23;20043;-83
2023/12/17 11:28:55;;;;;;;22.92;10.05;;;;;;;;;;6164276;23;20097;-83
2023/12/17 11:31:22;;;;;;;24.40;10.73;;;;;;;;;;6139834;23;20016;-83
2023/12/17 11:33:48;;;;;;;27.35;10.68;;;;;;;;;;6139158;23;20024;-82
2023/12/17 11:36:17;;;;;;;25.10;10.68;;;;;;;;;;6139536;23;20021;-82
2023/12/17 11:38:43;;;;;;;22.88;10.32;;;;;;;;;;6139041;23;20032;-83
2023/12/17 11:41:09;;;;;;;30.70;10.05;;;;;;;;;;6138769;23;20115;-82
2023/12/17 11:43:35;;;;;;;21.08;10.73;;;;;;;;;;6138826;23;20051;-83
2023/12/17 11:46:09;;;;;;;21.00;10.30;;;;;;;;;;6137213;23;20024;-83
2023/12/17 11:48:35;;;;;;;24.75;12.07;;;;;;;;;;6136782;23;20310;-83
2023/12/17 11:51:01;;;;;;;20.75;11.23;;;;;;;;;;6162127;23;20044;-83
2023/12/17 11:53:30;;;;;;;19.75;10.38;;;;;;;;;;6137789;23;20056;-83
2023/12/17 11:55:56;;;;;;;21.08;11.57;;;;;;;;;;6137664;23;20032;-83
2023/12/17 11:58:23;;;;;;;23.13;11.63;;;;;;;;;;6138170;23;20013;-83
2023/12/17 12:01:02;;;;;;;22.83;11.40;;;;;;;;;;6137779;23;20101;-83
2023/12/17 12:03:28;;;;;;;21.88;11.88;;;;;;;;;;6138365;23;20108;-83
2023/12/17 12:06:06;;;;;;;27.10;13.15;;;;;;;;;;6138263;23;20020;-83
2023/12/17 12:08:36;;;;;;;23.67;12.73;;;;;;;;;;6138876;23;20450;-83
2023/12/17 12:11:02;;;;;;;21.05;11.63;;;;;;;;;;6139115;23;20100;-82
2023/12/17 12:13:29;;;;;;;20.55;11.85;;;;;;;;;;6138475;23;20443;-83
2023/12/17 12:15:59;;;;;;;25.15;12.65;;;;;;;;;;6138432;23;20013;-83
2023/12/17 12:18:25;;;;;;;21.05;12.77;;;;;;;;;;6138675;23;20346;-83
2023/12/17 12:20:51;;;;;;;25.73;13.23;;;;;;;;;;6163693;23;20021;-82
2023/12/17 12:23:17;;;;;;;21.15;14.05;;;;;;;;;;6164012;23;20016;-83
2023/12/17 12:25:43;;;;;;;24.25;13.05;;;;;;;;;;6135995;23;20025;-85
2023/12/17 12:28:18;;;;;;;26.38;13.13;;;;;;;;;;6137961;23;20513;-82
2023/12/17 12:30:44;;;;;;;20.38;11.18;;;;;;;;;;6138831;23;20021;-82
2023/12/17 12:33:14;;;;;;;25.70;13.70;;;;;;;;;;6139173;23;20013;-83
2023/12/17 12:35:41;;;;;;;24.83;12.75;;;;;;;;;;6138431;23;20017;-83
2023/12/17 12:38:39;;;;;;;19.92;12.93;;;;;;;;;;6163855;23;20031;-82
2023/12/17 12:41:12;;;;;;;25.30;12.43;;;;;;;;;;6075019;23;20121;-85
2023/12/17 12:43:42;;;;;;;18.35;11.55;;;;;;;;;;6164948;23;20096;-82
2023/12/17 12:46:08;;;;;;;22.75;11.65;;;;;;;;;;6164685;23;20020;-82
2023/12/17 12:48:36;;;;;;;19.58;10.43;;;;;;;;;;6190592;23;20112;-83
2023/12/17 12:51:02;;;;;;;22.05;11.25;;;;;;;;;;6190033;23;20017;-84
2023/12/17 12:53:28;;;;;;;21.27;11.98;;;;;;;;;;6139254;23;20430;-83
2023/12/17 12:55:54;;;;;;;21.33;12.02;;;;;;;;;;6138702;23;20053;-83
2023/12/17 12:58:21;;;;;;;20.10;10.90;;;;;;;;;;6190247;23;20021;-83
2023/12/17 13:00:47;;;;;;;20.95;10.65;;;;;;;;;;6139662;23;20069;-83
2023/12/17 13:03:13;;;;;;;21.08;10.85;;;;;;;;;;6140239;23;20020;-83
2023/12/17 13:05:40;;;;;;;22.67;11.65;;;;;;;;;;6163311;23;20357;-83
2023/12/17 13:08:06;;;;;;;25.08;11.80;;;;;;;;;;6163369;23;20021;-83
2023/12/17 13:10:33;;;;;;;21.77;10.48;;;;;;;;;;6190553;23;20024;-83
2023/12/17 13:12:59;;;;;;;18.58;10.30;;;;;;;;;;6163517;23;20445;-83
2023/12/17 13:15:25;;;;;;;20.27;11.23;;;;;;;;;;6135946;23;20438;-84
2023/12/17 13:17:51;;;;;;;21.60;10.25;;;;;;;;;;6135491;23;20016;-83
2023/12/17 13:20:17;;;;;;;19.40;10.52;;;;;;;;;;6135830;23;20013;-83
2023/12/17 13:22:44;;;;;;;22.83;11.55;;;;;;;;;;6161214;23;20480;-84
2023/12/17 13:25:10;;;;;;;19.58;11.95;;;;;;;;;;6135722;23;20021;-83
2023/12/17 13:27:36;;;;;;;24.00;12.13;;;;;;;;;;6137638;23;20076;-83
2023/12/17 13:30:03;;;;;;;23.67;12.10;;;;;;;;;;6134588;23;20028;-83
2023/12/17 13:32:29;;;;;;;18.38;12.07;;;;;;;;;;6160668;23;20017;-83
2023/12/17 13:34:58;;;;;;;22.35;13.07;;;;;;;;;;6134939;23;20449;-83
2023/12/17 13:37:24;;;;;;;23.17;13.35;;;;;;;;;;6134456;23;20088;-84
2023/12/17 13:39:50;;;;;;;25.90;14.40;;;;;;;;;;6134473;23;20088;-83
2023/12/17 13:42:16;;;;;;;22.75;13.20;;;;;;;;;;6134420;23;20028;-83
2023/12/17 13:44:42;;;;;;;22.13;14.15;;;;;;;;;;6137913;23;20053;-83
2023/12/17 13:47:08;;;;;;;17.95;12.40;;;;;;;;;;6163033;23;20013;-83
2023/12/17 13:49:38;;;;;;;22.23;14.02;;;;;;;;;;6137353;23;20442;-84
2023/12/17 13:52:08;;;;;;;21.45;13.43;;;;;;;;;;6162293;23;20065;-83
2023/12/17 13:54:34;;;;;;;22.70;13.38;;;;;;;;;;6161049;23;20021;-83
2023/12/17 13:57:02;;;;;;;20.02;12.48;;;;;;;;;;6135234;23;20026;-83
2023/12/17 13:59:28;;;;;;;20.00;11.55;;;;;;;;;;6161556;23;20427;-83
2023/12/17 14:01:54;;;;;;;22.05;12.43;;;;;;;;;;6161997;23;20017;-83
2023/12/17 14:04:20;;;;;;;25.60;13.25;;;;;;;;;;6162176;23;20076;-83
2023/12/17 14:06:48;;;;;;;23.50;13.50;;;;;;;;;;6136636;23;20017;-82
2023/12/17 14:09:14;;;;;;;23.05;13.75;;;;;;;;;;6161612;23;20021;-83
2023/12/17 14:11:41;;;;;;;23.90;15.20;;;;;;;;;;6161821;23;20071;-85
2023/12/17 14:14:07;;;;;;;25.92;15.48;;;;;;;;;;6189690;23;20028;-83
2023/12/17 14:16:36;;;;;;;31.38;16.55;;;;;;;;;;6162023;23;20021;-83
2023/12/17 14:19:02;;;;;;;22.67;14.73;;;;;;;;;;6135464;23;20027;-83
2023/12/17 14:21:29;;;;;;;27.48;16.08;;;;;;;;;;6160544;23;20070;-83